sensor_id;sensor_type;location;lat;lon;timestamp;pressure;altitude;pressure_sealevel;temperature;humidity
79752;BME280;69234;47.446;21.636;2023-11-21T00:00:23;100082.88;;;6.68;100.00
79752;BME280;69234;47.446;21.636;2023-11-21T00:00:53;100072.31;;;6.66;100.00
79752;BME280;69234;47.446;21.636;2023-11-21T00:01:25;100069.03;;;6.63;100.00
79752;BME280;69234;47.446;21.636;2023-11-21T00:01:57;100084.91;;;6.64;100.00
79752;BME280;69234;47.446;21.636;2023-11-21T00:02:28;100075.09;;;6.65;100.00
79752;BME280;69234;47.446;21.636;2023-11-21T00:02:59;100085.03;;;6.63;100.00
79752;BME280;69234;47.446;21.636;2023-11-21T00:03:32;100080.44;;;6.65;100.00
79752;BME280;69234;47.446;21.636;2023-11-21T00:04:03;100074.25;;;6.64;100.00
79752;BME280;69234;47.446;21.636;2023-11-21T00:04:34;100081.53;;;6.62;100.00
79752;BME280;69234;47.446;21.636;2023-11-21T00:05:09;100077.88;;;6.63;100.00
79752;BME280;69234;47.446;21.636;2023-11-21T00:05:41;100077.25;;;6.60;100.00
79752;BME280;69234;47.446;21.636;2023-11-21T00:06:12;100086.03;;;6.62;100.00
79752;BME280;69234;47.446;21.636;2023-11-21T00:06:43;100076.41;;;6.59;100.00
79752;BME280;69234;47.446;21.636;2023-11-21T00:07:17;100072.28;;;6.55;100.00
79752;BME280;69234;47.446;21.636;2023-11-21T00:07:48;100077.47;;;6.57;100.00
79752;BME280;69234;47.446;21.636;2023-11-21T00:08:19;100075.78;;;6.56;100.00
79752;BME280;69234;47.446;21.636;2023-11-21T00:08:50;100086.03;;;6.62;100.00
79752;BME280;69234;47.446;21.636;2023-11-21T00:09:21;100086.25;;;6.59;100.00
79752;BME280;69234;47.446;21.636;2023-11-21T00:09:52;100089.63;;;6.61;100.00
79752;BME280;69234;47.446;21.636;2023-11-21T00:10:26;100086.88;;;6.62;100.00
79752;BME280;69234;47.446;21.636;2023-11-21T00:10:57;100084.06;;;6.64;100.00
79752;BME280;69234;47.446;21.636;2023-11-21T00:11:31;100073.84;;;6.58;100.00
79752;BME280;69234;47.446;21.636;2023-11-21T00:12:02;100080.78;;;6.60;100.00
79752;BME280;69234;47.446;21.636;2023-11-21T00:12:34;100087.81;;;6.61;100.00
79752;BME280;69234;47.446;21.636;2023-11-21T00:13:05;100084.81;;;6.66;100.00
79752;BME280;69234;47.446;21.636;2023-11-21T00:13:36;100086.66;;;6.65;100.00
79752;BME280;69234;47.446;21.636;2023-11-21T00:14:08;100090.88;;;6.68;100.00
79752;BME280;69234;47.446;21.636;2023-11-21T00:14:39;100094.53;;;6.67;100.00
79752;BME280;69234;47.446;21.636;2023-11-21T00:15:10;100079.72;;;6.63;100.00
79752;BME280;69234;47.446;21.636;2023-11-21T00:15:44;100083.09;;;6.65;100.00
79752;BME280;69234;47.446;21.636;2023-11-21T00:16:15;100085.03;;;6.63;100.00
79752;BME280;69234;47.446;21.636;2023-11-21T00:16:46;100092.69;;;6.67;100.00
79752;BME280;69234;47.446;21.636;2023-11-21T00:17:16;100083.34;;;6.62;100.00
79752;BME280;69234;47.446;21.636;2023-11-21T00:17:47;100088.97;;;6.70;100.00
79752;BME280;69234;47.446;21.636;2023-11-21T00:18:37;100090.44;;;6.74;100.00
79752;BME280;69234;47.446;21.636;2023-11-21T00:19:07;100086.91;;;6.74;100.00
79752;BME280;69234;47.446;21.636;2023-11-21T00:19:38;100085.94;;;6.75;100.00
79752;BME280;69234;47.446;21.636;2023-11-21T00:20:09;100076.38;;;6.72;100.00
79752;BME280;69234;47.446;21.636;2023-11-21T00:20:43;100081.44;;;6.75;100.00
79752;BME280;69234;47.446;21.636;2023-11-21T00:21:14;100071.88;;;6.73;100.00
79752;BME280;69234;47.446;21.636;2023-11-21T00:21:45;100076.13;;;6.75;100.00
79752;BME280;69234;47.446;21.636;2023-11-21T00:22:16;100080.50;;;6.76;100.00
79752;BME280;69234;47.446;21.636;2023-11-21T00:22:47;100088.91;;;6.83;100.00
79752;BME280;69234;47.446;21.636;2023-11-21T00:23:18;100079.53;;;6.77;100.00
79752;BME280;69234;47.446;21.636;2023-11-21T00:23:49;100083.44;;;6.84;100.00
79752;BME280;69234;47.446;21.636;2023-11-21T00:24:20;100083.44;;;6.84;100.00
79752;BME280;69234;47.446;21.636;2023-11-21T00:24:51;100094.88;;;6.86;100.00
79752;BME280;69234;47.446;21.636;2023-11-21T00:25:22;100080.69;;;6.86;100.00
79752;BME280;69234;47.446;21.636;2023-11-21T00:25:53;100087.50;;;6.90;100.00
79752;BME280;69234;47.446;21.636;2023-11-21T00:26:24;100088.22;;;6.92;100.00
79752;BME280;69234;47.446;21.636;2023-11-21T00:27:04;100085.66;;;6.90;100.00
79752;BME280;69234;47.446;21.636;2023-11-21T00:27:37;100082.88;;;6.92;100.00
79752;BME280;69234;47.446;21.636;2023-11-21T00:28:08;100083.72;;;6.93;100.00
79752;BME280;69234;47.446;21.636;2023-11-21T00:28:39;100088.97;;;6.94;100.00
79752;BME280;69234;47.446;21.636;2023-11-21T00:29:10;100088.13;;;6.94;100.00
79752;BME280;69234;47.446;21.636;2023-11-21T00:29:41;100088.84;;;6.96;100.00
79752;BME280;69234;47.446;21.636;2023-11-21T00:30:13;100092.25;;;6.98;100.00
79752;BME280;69234;47.446;21.636;2023-11-21T00:30:44;100087.88;;;6.97;100.00
79752;BME280;69234;47.446;21.636;2023-11-21T00:31:15;100092.25;;;6.98;100.00
79752;BME280;69234;47.446;21.636;2023-11-21T00:31:46;100085.22;;;6.97;100.00
79752;BME280;69234;47.446;21.636;2023-11-21T00:32:17;100085.09;;;6.98;100.00
79752;BME280;69234;47.446;21.636;2023-11-21T00:32:48;100090.34;;;7.00;100.00
79752;BME280;69234;47.446;21.636;2023-11-21T00:33:19;100089.22;;;7.02;100.00
79752;BME280;69234;47.446;21.636;2023-11-21T00:33:50;100081.44;;;6.99;100.00
79752;BME280;69234;47.446;21.636;2023-11-21T00:34:21;100083.88;;;7.02;100.00
79752;BME280;69234;47.446;21.636;2023-11-21T00:34:52;100087.53;;;7.01;100.00
79752;BME280;69234;47.446;21.636;2023-11-21T00:35:23;100090.19;;;7.01;100.00
79752;BME280;69234;47.446;21.636;2023-11-21T00:35:54;100091.06;;;7.02;100.00
79752;BME280;69234;47.446;21.636;2023-11-21T00:36:24;100090.06;;;7.03;100.00
79752;BME280;69234;47.446;21.636;2023-11-21T00:36:56;100094.34;;;7.05;100.00
79752;BME280;69234;47.446;21.636;2023-11-21T00:37:27;100083.88;;;7.02;100.00
79752;BME280;69234;47.446;21.636;2023-11-21T00:37:58;100095.19;;;7.06;100.00
79752;BME280;69234;47.446;21.636;2023-11-21T00:38:30;100096.91;;;7.07;100.00
79752;BME280;69234;47.446;21.636;2023-11-21T00:39:03;100097.00;;;7.05;100.00
79752;BME280;69234;47.446;21.636;2023-11-21T00:39:34;100093.38;;;7.06;100.00
79752;BME280;69234;47.446;21.636;2023-11-21T00:40:06;100095.19;;;7.06;100.00
79752;BME280;69234;47.446;21.636;2023-11-21T00:40:39;100099.44;;;7.08;100.00
79752;BME280;69234;47.446;21.636;2023-11-21T00:41:09;100093.88;;;7.11;100.00
79752;BME280;69234;47.446;21.636;2023-11-21T00:41:40;100098.38;;;7.11;100.00
79752;BME280;69234;47.446;21.636;2023-11-21T00:42:12;100096.44;;;7.13;100.00
79752;BME280;69234;47.446;21.636;2023-11-21T00:42:43;100095.72;;;7.11;100.00
79752;BME280;69234;47.446;21.636;2023-11-21T00:43:14;100094.25;;;7.07;100.00
79752;BME280;69234;47.446;21.636;2023-11-21T00:43:45;100099.22;;;7.11;100.00
79752;BME280;69234;47.446;21.636;2023-11-21T00:44:16;100106.03;;;7.15;100.00
79752;BME280;69234;47.446;21.636;2023-11-21T00:44:47;100088.63;;;7.10;100.00
79752;BME280;69234;47.446;21.636;2023-11-21T00:45:18;100097.19;;;7.15;100.00
79752;BME280;69234;47.446;21.636;2023-11-21T00:45:49;100088.94;;;7.18;100.00
79752;BME280;69234;47.446;21.636;2023-11-21T00:46:21;100101.31;;;7.19;100.00
79752;BME280;69234;47.446;21.636;2023-11-21T00:46:53;100093.53;;;7.16;100.00
79752;BME280;69234;47.446;21.636;2023-11-21T00:47:25;100099.50;;;7.20;100.00
79752;BME280;69234;47.446;21.636;2023-11-21T00:47:56;100082.13;;;7.14;100.00
79752;BME280;69234;47.446;21.636;2023-11-21T00:48:26;100095.75;;;7.22;100.00
79752;BME280;69234;47.446;21.636;2023-11-21T00:48:57;100098.28;;;7.24;100.00
79752;BME280;69234;47.446;21.636;2023-11-21T00:49:28;100087.97;;;7.19;100.00
79752;BME280;69234;47.446;21.636;2023-11-21T00:49:59;100101.31;;;7.19;100.00
79752;BME280;69234;47.446;21.636;2023-11-21T00:50:30;100092.44;;;7.19;100.00
79752;BME280;69234;47.446;21.636;2023-11-21T00:51:01;100092.44;;;7.19;100.00
79752;BME280;69234;47.446;21.636;2023-11-21T00:51:32;100100.09;;;7.23;100.00
79752;BME280;69234;47.446;21.636;2023-11-21T00:52:04;100099.38;;;7.21;100.00
79752;BME280;69234;47.446;21.636;2023-11-21T00:52:36;100094.91;;;7.22;100.00
79752;BME280;69234;47.446;21.636;2023-11-21T00:53:07;100097.44;;;7.23;100.00
79752;BME280;69234;47.446;21.636;2023-11-21T00:53:41;100095.63;;;7.24;100.00
79752;BME280;69234;47.446;21.636;2023-11-21T00:54:12;100096.59;;;7.23;100.00
79752;BME280;69234;47.446;21.636;2023-11-21T00:54:43;100093.81;;;7.24;100.00
79752;BME280;69234;47.446;21.636;2023-11-21T00:55:15;100092.84;;;7.25;100.00
79752;BME280;69234;47.446;21.636;2023-11-21T00:55:47;100089.31;;;7.25;100.00
79752;BME280;69234;47.446;21.636;2023-11-21T00:56:18;100099.88;;;7.26;100.00
79752;BME280;69234;47.446;21.636;2023-11-21T00:56:49;100095.75;;;7.22;100.00
79752;BME280;69234;47.446;21.636;2023-11-21T00:57:20;100095.00;;;7.20;100.00
79752;BME280;69234;47.446;21.636;2023-11-21T00:57:52;100099.03;;;7.26;100.00
79752;BME280;69234;47.446;21.636;2023-11-21T00:58:26;100106.19;;;7.25;100.00
79752;BME280;69234;47.446;21.636;2023-11-21T00:58:57;100104.25;;;7.27;100.00
79752;BME280;69234;47.446;21.636;2023-11-21T00:59:28;100109.59;;;7.27;100.00
79752;BME280;69234;47.446;21.636;2023-11-21T00:59:59;100109.72;;;7.26;100.00
79752;BME280;69234;47.446;21.636;2023-11-21T01:00:31;100100.00;;;7.25;100.00
79752;BME280;69234;47.446;21.636;2023-11-21T01:01:02;100105.22;;;7.26;100.00
79752;BME280;69234;47.446;21.636;2023-11-21T01:01:34;100105.97;;;7.28;100.00
79752;BME280;69234;47.446;21.636;2023-11-21T01:02:05;100098.06;;;7.27;100.00
79752;BME280;69234;47.446;21.636;2023-11-21T01:02:36;100097.22;;;7.26;100.00
79752;BME280;69234;47.446;21.636;2023-11-21T01:03:07;100100.50;;;7.30;100.00
79752;BME280;69234;47.446;21.636;2023-11-21T01:03:40;100096.22;;;7.27;100.00
79752;BME280;69234;47.446;21.636;2023-11-21T01:04:10;100093.31;;;7.30;100.00
79752;BME280;69234;47.446;21.636;2023-11-21T01:04:41;100095.28;;;7.28;100.00
79752;BME280;69234;47.446;21.636;2023-11-21T01:05:12;100094.44;;;7.28;100.00
79752;BME280;69234;47.446;21.636;2023-11-21T01:05:45;100094.31;;;7.29;100.00
79752;BME280;69234;47.446;21.636;2023-11-21T01:06:16;100093.31;;;7.30;100.00
79752;BME280;69234;47.446;21.636;2023-11-21T01:06:47;100097.72;;;7.31;100.00
79752;BME280;69234;47.446;21.636;2023-11-21T01:07:19;100096.00;;;7.30;100.00
79752;BME280;69234;47.446;21.636;2023-11-21T01:07:51;100098.66;;;7.30;100.00
79752;BME280;69234;47.446;21.636;2023-11-21T01:08:22;100101.25;;;7.32;100.00
79752;BME280;69234;47.446;21.636;2023-11-21T01:08:54;100095.91;;;7.32;100.00
79752;BME280;69234;47.446;21.636;2023-11-21T01:09:26;100088.72;;;7.32;100.00
79752;BME280;69234;47.446;21.636;2023-11-21T01:09:57;100088.72;;;7.32;100.00
79752;BME280;69234;47.446;21.636;2023-11-21T01:10:28;100094.22;;;7.31;100.00
79752;BME280;69234;47.446;21.636;2023-11-21T01:10:59;100090.44;;;7.33;100.00
79752;BME280;69234;47.446;21.636;2023-11-21T01:11:31;100086.06;;;7.32;100.00
79752;BME280;69234;47.446;21.636;2023-11-21T01:12:02;100089.72;;;7.31;100.00
79752;BME280;69234;47.446;21.636;2023-11-21T01:12:36;100093.94;;;7.34;100.00
79752;BME280;69234;47.446;21.636;2023-11-21T01:13:10;100089.56;;;7.33;100.00
79752;BME280;69234;47.446;21.636;2023-11-21T01:13:42;100091.28;;;7.34;100.00
79752;BME280;69234;47.446;21.636;2023-11-21T01:14:13;100087.75;;;7.33;100.00
79752;BME280;69234;47.446;21.636;2023-11-21T01:14:44;100085.22;;;7.32;100.00
79752;BME280;69234;47.446;21.636;2023-11-21T01:15:16;100085.94;;;7.34;100.00
79752;BME280;69234;47.446;21.636;2023-11-21T01:15:47;100093.31;;;7.30;100.00
79752;BME280;69234;47.446;21.636;2023-11-21T01:16:18;100088.72;;;7.32;100.00
79752;BME280;69234;47.446;21.636;2023-11-21T01:16:49;100087.88;;;7.32;100.00
79752;BME280;69234;47.446;21.636;2023-11-21T01:17:20;100090.56;;;7.32;100.00
79752;BME280;69234;47.446;21.636;2023-11-21T01:17:53;100087.88;;;7.32;100.00
79752;BME280;69234;47.446;21.636;2023-11-21T01:18:25;100085.94;;;7.34;100.00
79752;BME280;69234;47.446;21.636;2023-11-21T01:18:56;100092.25;;;7.33;100.00
79752;BME280;69234;47.446;21.636;2023-11-21T01:19:27;100094.06;;;7.32;100.00
79752;BME280;69234;47.446;21.636;2023-11-21T01:20:00;100089.94;;;7.28;100.00
79752;BME280;69234;47.446;21.636;2023-11-21T01:20:30;100092.63;;;7.28;100.00
79752;BME280;69234;47.446;21.636;2023-11-21T01:21:01;100094.44;;;7.28;100.00
79752;BME280;69234;47.446;21.636;2023-11-21T01:21:32;100094.31;;;7.29;100.00
79752;BME280;69234;47.446;21.636;2023-11-21T01:22:04;100089.94;;;7.28;100.00
79752;BME280;69234;47.446;21.636;2023-11-21T01:22:36;100096.22;;;7.27;100.00
79752;BME280;69234;47.446;21.636;2023-11-21T01:23:07;100089.09;;;7.28;100.00
79752;BME280;69234;47.446;21.636;2023-11-21T01:23:38;100095.06;;;7.31;100.00
79752;BME280;69234;47.446;21.636;2023-11-21T01:24:09;100093.56;;;7.27;100.00
79752;BME280;69234;47.446;21.636;2023-11-21T01:24:41;100090.88;;;7.27;100.00
79752;BME280;69234;47.446;21.636;2023-11-21T01:25:12;100090.16;;;7.25;100.00
79752;BME280;69234;47.446;21.636;2023-11-21T01:25:44;100089.19;;;7.26;100.00
79752;BME280;69234;47.446;21.636;2023-11-21T01:26:15;100087.59;;;7.24;100.00
79752;BME280;69234;47.446;21.636;2023-11-21T01:26:46;100085.81;;;7.24;100.00
79752;BME280;69234;47.446;21.636;2023-11-21T01:27:17;100087.59;;;7.24;100.00
79752;BME280;69234;47.446;21.636;2023-11-21T01:27:49;100086.75;;;7.23;100.00
79752;BME280;69234;47.446;21.636;2023-11-21T01:28:20;100085.81;;;7.24;100.00
79752;BME280;69234;47.446;21.636;2023-11-21T01:28:51;100089.56;;;7.22;100.00
79752;BME280;69234;47.446;21.636;2023-11-21T01:29:22;100086.03;;;7.21;100.00
79752;BME280;69234;47.446;21.636;2023-11-21T01:29:53;100082.63;;;7.19;100.00
79752;BME280;69234;47.446;21.636;2023-11-21T01:30:24;100090.41;;;7.22;100.00
79752;BME280;69234;47.446;21.636;2023-11-21T01:30:56;100086.88;;;7.22;100.00
79752;BME280;69234;47.446;21.636;2023-11-21T01:31:27;100082.25;;;7.24;100.00
79752;BME280;69234;47.446;21.636;2023-11-21T01:32:00;100086.88;;;7.22;100.00
79752;BME280;69234;47.446;21.636;2023-11-21T01:32:31;100078.97;;;7.20;100.00
79752;BME280;69234;47.446;21.636;2023-11-21T01:33:02;100082.63;;;7.19;100.00
79752;BME280;69234;47.446;21.636;2023-11-21T01:33:34;100086.03;;;7.21;100.00
79752;BME280;69234;47.446;21.636;2023-11-21T01:34:05;100087.47;;;7.14;100.00
79752;BME280;69234;47.446;21.636;2023-11-21T01:34:37;100073.38;;;7.12;100.00
79752;BME280;69234;47.446;21.636;2023-11-21T01:35:08;100087.25;;;7.17;100.00
79752;BME280;69234;47.446;21.636;2023-11-21T01:35:40;100087.97;;;7.19;100.00
79752;BME280;69234;47.446;21.636;2023-11-21T01:36:11;100086.38;;;7.17;100.00
79752;BME280;69234;47.446;21.636;2023-11-21T01:36:42;100085.50;;;7.16;100.00
79752;BME280;69234;47.446;21.636;2023-11-21T01:37:13;100092.59;;;7.17;100.00
79752;BME280;69234;47.446;21.636;2023-11-21T01:37:44;100092.81;;;7.14;100.00
79752;BME280;69234;47.446;21.636;2023-11-21T01:38:15;100089.16;;;7.15;100.00
79752;BME280;69234;47.446;21.636;2023-11-21T01:38:48;100080.63;;;7.10;100.00
79752;BME280;69234;47.446;21.636;2023-11-21T01:39:19;100086.84;;;7.10;100.00
79752;BME280;69234;47.446;21.636;2023-11-21T01:39:54;100093.25;;;7.08;100.00
79752;BME280;69234;47.446;21.636;2023-11-21T01:40:26;100092.28;;;7.09;100.00
79752;BME280;69234;47.446;21.636;2023-11-21T01:40:57;100085.97;;;7.10;100.00
79752;BME280;69234;47.446;21.636;2023-11-21T01:41:28;100085.03;;;7.11;100.00
79752;BME280;69234;47.446;21.636;2023-11-21T01:41:59;100081.59;;;7.09;100.00
79752;BME280;69234;47.446;21.636;2023-11-21T01:42:30;100083.56;;;7.07;100.00
79752;BME280;69234;47.446;21.636;2023-11-21T01:43:01;100080.28;;;7.03;100.00
79752;BME280;69234;47.446;21.636;2023-11-21T01:43:34;100074.94;;;7.03;100.00
79752;BME280;69234;47.446;21.636;2023-11-21T01:44:05;100082.81;;;7.05;100.00
79752;BME280;69234;47.446;21.636;2023-11-21T01:44:39;100073.34;;;7.01;100.00
79752;BME280;69234;47.446;21.636;2023-11-21T01:45:10;100079.13;;;6.95;100.00
79752;BME280;69234;47.446;21.636;2023-11-21T01:45:43;100080.81;;;6.96;100.00
79752;BME280;69234;47.446;21.636;2023-11-21T01:46:15;100079.88;;;6.97;100.00
79752;BME280;69234;47.446;21.636;2023-11-21T01:46:47;100079.88;;;6.97;100.00
79752;BME280;69234;47.446;21.636;2023-11-21T01:47:18;100087.00;;;6.96;100.00
79752;BME280;69234;47.446;21.636;2023-11-21T01:47:49;100079.00;;;6.96;100.00
79752;BME280;69234;47.446;21.636;2023-11-21T01:48:20;100082.78;;;6.94;100.00
79752;BME280;69234;47.446;21.636;2023-11-21T01:48:53;100077.75;;;6.89;100.00
79752;BME280;69234;47.446;21.636;2023-11-21T01:49:24;100083.97;;;6.89;100.00
79752;BME280;69234;47.446;21.636;2023-11-21T01:49:55;100082.38;;;6.87;100.00
79752;BME280;69234;47.446;21.636;2023-11-21T01:50:27;100077.41;;;6.82;100.00
79752;BME280;69234;47.446;21.636;2023-11-21T01:50:59;100085.06;;;6.87;100.00
79752;BME280;69234;47.446;21.636;2023-11-21T01:51:29;100078.09;;;6.84;100.00
79752;BME280;69234;47.446;21.636;2023-11-21T01:52:03;100080.78;;;6.84;100.00
79752;BME280;69234;47.446;21.636;2023-11-21T01:52:36;100082.97;;;6.79;100.00
79752;BME280;69234;47.446;21.636;2023-11-21T01:53:07;100069.94;;;6.75;100.00
79752;BME280;69234;47.446;21.636;2023-11-21T01:53:39;100074.19;;;6.77;100.00
79752;BME280;69234;47.446;21.636;2023-11-21T01:54:10;100078.91;;;6.74;100.00
79752;BME280;69234;47.446;21.636;2023-11-21T01:54:42;100076.13;;;6.75;100.00
79752;BME280;69234;47.446;21.636;2023-11-21T01:55:16;100082.56;;;6.73;100.00
79752;BME280;69234;47.446;21.636;2023-11-21T01:55:50;100079.25;;;6.69;100.00
79752;BME280;69234;47.446;21.636;2023-11-21T01:56:21;100083.84;;;6.67;100.00
79752;BME280;69234;47.446;21.636;2023-11-21T01:56:52;100083.84;;;6.67;100.00
79752;BME280;69234;47.446;21.636;2023-11-21T01:57:23;100080.44;;;6.65;100.00
79752;BME280;69234;47.446;21.636;2023-11-21T01:57:56;100082.16;;;6.66;100.00
79752;BME280;69234;47.446;21.636;2023-11-21T01:58:28;100086.66;;;6.65;100.00
79752;BME280;69234;47.446;21.636;2023-11-21T01:58:58;100084.06;;;6.64;100.00
79752;BME280;69234;47.446;21.636;2023-11-21T01:59:36;100083.34;;;6.62;100.00
79752;BME280;69234;47.446;21.636;2023-11-21T02:00:08;100089.00;;;6.57;100.00
79752;BME280;69234;47.446;21.636;2023-11-21T02:00:50;100090.72;;;6.58;100.00
79752;BME280;69234;47.446;21.636;2023-11-21T02:01:21;100089.34;;;6.53;100.00
79752;BME280;69234;47.446;21.636;2023-11-21T02:01:52;100083.03;;;6.54;100.00
79752;BME280;69234;47.446;21.636;2023-11-21T02:02:24;100084.00;;;6.53;100.00
79752;BME280;69234;47.446;21.636;2023-11-21T02:02:55;100078.91;;;6.50;100.00
79752;BME280;69234;47.446;21.636;2023-11-21T02:03:27;100078.06;;;6.49;100.00
79752;BME280;69234;47.446;21.636;2023-11-21T02:03:58;100087.03;;;6.48;100.00
79752;BME280;69234;47.446;21.636;2023-11-21T02:04:29;100083.47;;;6.48;100.00
79752;BME280;69234;47.446;21.636;2023-11-21T02:05:00;100075.81;;;6.43;100.00
79752;BME280;69234;47.446;21.636;2023-11-21T02:05:32;100084.47;;;6.47;100.00
79752;BME280;69234;47.446;21.636;2023-11-21T02:06:04;100079.25;;;6.45;100.00
79752;BME280;69234;47.446;21.636;2023-11-21T02:06:36;100080.09;;;6.46;100.00
79752;BME280;69234;47.446;21.636;2023-11-21T02:07:07;100076.91;;;6.40;100.00
79752;BME280;69234;47.446;21.636;2023-11-21T02:07:40;100083.72;;;6.45;100.00
79752;BME280;69234;47.446;21.636;2023-11-21T02:08:10;100071.56;;;6.40;100.00
79752;BME280;69234;47.446;21.636;2023-11-21T02:08:41;100077.78;;;6.41;100.00
79752;BME280;69234;47.446;21.636;2023-11-21T02:09:16;100082.97;;;6.42;100.00
79752;BME280;69234;47.446;21.636;2023-11-21T02:09:48;100078.63;;;6.41;100.00
79752;BME280;69234;47.446;21.636;2023-11-21T02:10:20;100068.38;;;6.35;100.00
79752;BME280;69234;47.446;21.636;2023-11-21T02:10:53;100076.16;;;6.38;100.00
79752;BME280;69234;47.446;21.636;2023-11-21T02:11:24;100079.81;;;6.37;100.00
79752;BME280;69234;47.446;21.636;2023-11-21T02:11:56;100071.41;;;6.31;100.00
79752;BME280;69234;47.446;21.636;2023-11-21T02:12:29;100073.72;;;6.35;100.00
79752;BME280;69234;47.446;21.636;2023-11-21T02:13:00;100081.59;;;6.37;100.00
79752;BME280;69234;47.446;21.636;2023-11-21T02:13:33;100063.50;;;6.29;100.00
79752;BME280;69234;47.446;21.636;2023-11-21T02:14:04;100067.53;;;6.35;100.00
79752;BME280;69234;47.446;21.636;2023-11-21T02:14:38;100066.69;;;6.34;100.00
79752;BME280;69234;47.446;21.636;2023-11-21T02:15:10;100068.38;;;6.35;100.00
79752;BME280;69234;47.446;21.636;2023-11-21T02:15:45;100066.91;;;6.31;100.00
79752;BME280;69234;47.446;21.636;2023-11-21T02:16:18;100070.53;;;6.30;100.00
79752;BME280;69234;47.446;21.636;2023-11-21T02:16:50;100062.66;;;6.29;100.00
79752;BME280;69234;47.446;21.636;2023-11-21T02:17:22;100071.63;;;6.28;100.00
79752;BME280;69234;47.446;21.636;2023-11-21T02:17:53;100072.47;;;6.28;100.00
79752;BME280;69234;47.446;21.636;2023-11-21T02:18:24;100063.72;;;6.26;100.00
79752;BME280;69234;47.446;21.636;2023-11-21T02:18:56;100071.72;;;6.26;100.00
79752;BME280;69234;47.446;21.636;2023-11-21T02:19:27;100062.22;;;6.22;100.00
79752;BME280;69234;47.446;21.636;2023-11-21T02:20:00;100065.88;;;6.21;100.00
79752;BME280;69234;47.446;21.636;2023-11-21T02:20:32;100068.53;;;6.21;100.00
79752;BME280;69234;47.446;21.636;2023-11-21T02:21:05;100060.75;;;6.18;100.00
79752;BME280;69234;47.446;21.636;2023-11-21T02:21:36;100068.75;;;6.18;100.00
79752;BME280;69234;47.446;21.636;2023-11-21T02:22:11;100063.50;;;6.16;100.00
79752;BME280;69234;47.446;21.636;2023-11-21T02:22:48;100066.94;;;6.18;100.00
79752;BME280;69234;47.446;21.636;2023-11-21T02:23:19;100066.09;;;6.18;100.00
79752;BME280;69234;47.446;21.636;2023-11-21T02:23:51;100069.72;;;6.17;100.00
79752;BME280;69234;47.446;21.636;2023-11-21T02:24:23;100066.44;;;6.13;100.00
79752;BME280;69234;47.446;21.636;2023-11-21T02:24:54;100061.31;;;6.10;100.00
79752;BME280;69234;47.446;21.636;2023-11-21T02:25:32;100070.88;;;6.13;100.00
79752;BME280;69234;47.446;21.636;2023-11-21T02:26:03;100071.00;;;6.11;100.00
79752;BME280;69234;47.446;21.636;2023-11-21T02:26:35;100072.91;;;6.09;100.00
79752;BME280;69234;47.446;21.636;2023-11-21T02:27:05;100076.69;;;6.07;100.00
79752;BME280;69234;47.446;21.636;2023-11-21T02:27:37;100072.28;;;6.06;100.00
79752;BME280;69234;47.446;21.636;2023-11-21T02:28:08;100069.97;;;6.01;100.00
79752;BME280;69234;47.446;21.636;2023-11-21T02:28:40;100076.69;;;6.07;100.00
79752;BME280;69234;47.446;21.636;2023-11-21T02:29:12;100075.19;;;6.03;100.00
79752;BME280;69234;47.446;21.636;2023-11-21T02:29:44;100071.88;;;5.99;100.00
79752;BME280;69234;47.446;21.636;2023-11-21T02:30:15;100081.47;;;6.02;100.00
79752;BME280;69234;47.446;21.636;2023-11-21T02:30:46;100078.09;;;6.00;100.00
79752;BME280;69234;47.446;21.636;2023-11-21T02:31:25;100085.31;;;5.98;100.00
79752;BME280;69234;47.446;21.636;2023-11-21T02:31:57;100089.69;;;5.99;100.00
79752;BME280;69234;47.446;21.636;2023-11-21T02:32:28;100077.31;;;5.98;100.00
79752;BME280;69234;47.446;21.636;2023-11-21T02:33:02;100082.53;;;5.99;100.00
79752;BME280;69234;47.446;21.636;2023-11-21T02:33:34;100086.16;;;5.98;100.00
79752;BME280;69234;47.446;21.636;2023-11-21T02:34:05;100087.22;;;5.95;100.00
79752;BME280;69234;47.446;21.636;2023-11-21T02:34:36;100084.69;;;5.94;100.00
79752;BME280;69234;47.446;21.636;2023-11-21T02:35:09;100076.81;;;5.92;100.00
79752;BME280;69234;47.446;21.636;2023-11-21T02:35:39;100085.94;;;5.88;100.00
79752;BME280;69234;47.446;21.636;2023-11-21T02:36:10;100084.22;;;5.87;100.00
79752;BME280;69234;47.446;21.636;2023-11-21T02:36:42;100085.09;;;5.88;100.00
79752;BME280;69234;47.446;21.636;2023-11-21T02:37:13;100082.53;;;5.86;100.00
79752;BME280;69234;47.446;21.636;2023-11-21T02:37:44;100089.56;;;5.87;100.00
79752;BME280;69234;47.446;21.636;2023-11-21T02:38:15;100083.47;;;5.85;100.00
79752;BME280;69234;47.446;21.636;2023-11-21T02:38:46;100087.97;;;5.85;100.00
79752;BME280;69234;47.446;21.636;2023-11-21T02:39:18;100079.13;;;5.84;100.00
79752;BME280;69234;47.446;21.636;2023-11-21T02:39:52;100081.91;;;5.83;100.00
79752;BME280;69234;47.446;21.636;2023-11-21T02:40:23;100080.09;;;5.83;100.00
79752;BME280;69234;47.446;21.636;2023-11-21T02:40:57;100075.72;;;5.82;100.00
79752;BME280;69234;47.446;21.636;2023-11-21T02:41:31;100073.91;;;5.83;100.00
79752;BME280;69234;47.446;21.636;2023-11-21T02:42:02;100069.63;;;5.80;100.00
79752;BME280;69234;47.446;21.636;2023-11-21T02:42:33;100069.63;;;5.80;100.00
79752;BME280;69234;47.446;21.636;2023-11-21T02:43:04;100080.19;;;5.82;100.00
79752;BME280;69234;47.446;21.636;2023-11-21T02:43:36;100081.06;;;5.82;100.00
79752;BME280;69234;47.446;21.636;2023-11-21T02:44:09;100076.16;;;5.76;100.00